sensor_id;sensor_type;location;lat;lon;timestamp;P1;durP1;ratioP1;P2;durP2;ratioP2
68910;SDS011;55953;51.650;-0.522;2023-12-22T00:00:04;11.20;;;2.20;;
68910;SDS011;55953;51.650;-0.522;2023-12-22T00:02:33;13.00;;;2.50;;
68910;SDS011;55953;51.650;-0.522;2023-12-22T00:05:01;15.00;;;2.40;;
68910;SDS011;55953;51.650;-0.522;2023-12-22T00:07:29;11.80;;;2.40;;
68910;SDS011;55953;51.650;-0.522;2023-12-22T00:09:57;12.30;;;2.40;;
68910;SDS011;55953;51.650;-0.522;2023-12-22T00:12:25;12.40;;;2.10;;
68910;SDS011;55953;51.650;-0.522;2023-12-22T00:14:53;15.40;;;2.30;;
68910;SDS011;55953;51.650;-0.522;2023-12-22T00:17:21;11.50;;;2.30;;
68910;SDS011;55953;51.650;-0.522;2023-12-22T00:19:49;12.60;;;2.20;;
68910;SDS011;55953;51.650;-0.522;2023-12-22T00:22:17;12.60;;;2.50;;
68910;SDS011;55953;51.650;-0.522;2023-12-22T00:24:45;13.50;;;2.90;;
68910;SDS011;55953;51.650;-0.522;2023-12-22T00:27:13;11.70;;;2.40;;
68910;SDS011;55953;51.650;-0.522;2023-12-22T00:29:41;14.20;;;2.40;;
68910;SDS011;55953;51.650;-0.522;2023-12-22T00:32:09;10.30;;;2.30;;
68910;SDS011;55953;51.650;-0.522;2023-12-22T00:34:37;10.10;;;2.20;;
68910;SDS011;55953;51.650;-0.522;2023-12-22T00:37:05;13.00;;;2.00;;
68910;SDS011;55953;51.650;-0.522;2023-12-22T00:39:33;11.00;;;2.10;;
68910;SDS011;55953;51.650;-0.522;2023-12-22T00:42:01;8.50;;;2.20;;
68910;SDS011;55953;51.650;-0.522;2023-12-22T00:44:31;10.50;;;1.80;;
68910;SDS011;55953;51.650;-0.522;2023-12-22T00:46:59;9.50;;;2.40;;
68910;SDS011;55953;51.650;-0.522;2023-12-22T00:49:27;8.80;;;2.30;;
68910;SDS011;55953;51.650;-0.522;2023-12-22T00:51:55;10.10;;;2.10;;
68910;SDS011;55953;51.650;-0.522;2023-12-22T00:54:23;7.00;;;1.70;;
68910;SDS011;55953;51.650;-0.522;2023-12-22T00:56:52;7.30;;;1.60;;
68910;SDS011;55953;51.650;-0.522;2023-12-22T00:59:21;7.50;;;1.60;;
68910;SDS011;55953;51.650;-0.522;2023-12-22T01:01:49;6.60;;;1.50;;
68910;SDS011;55953;51.650;-0.522;2023-12-22T01:04:17;5.60;;;1.50;;
68910;SDS011;55953;51.650;-0.522;2023-12-22T01:06:45;5.70;;;1.20;;
68910;SDS011;55953;51.650;-0.522;2023-12-22T01:09:13;6.20;;;1.20;;
68910;SDS011;55953;51.650;-0.522;2023-12-22T01:11:42;6.60;;;1.40;;
68910;SDS011;55953;51.650;-0.522;2023-12-22T01:14:10;2.50;;;0.90;;
68910;SDS011;55953;51.650;-0.522;2023-12-22T01:16:40;4.00;;;1.30;;
68910;SDS011;55953;51.650;-0.522;2023-12-22T01:19:08;4.30;;;0.80;;
68910;SDS011;55953;51.650;-0.522;2023-12-22T01:21:36;4.50;;;1.00;;
68910;SDS011;55953;51.650;-0.522;2023-12-22T01:24:04;3.40;;;1.00;;
68910;SDS011;55953;51.650;-0.522;2023-12-22T01:26:32;2.80;;;0.70;;
68910;SDS011;55953;51.650;-0.522;2023-12-22T01:29:00;3.40;;;0.70;;
68910;SDS011;55953;51.650;-0.522;2023-12-22T01:31:28;1.00;;;0.60;;
68910;SDS011;55953;51.650;-0.522;2023-12-22T01:33:56;3.20;;;0.70;;
68910;SDS011;55953;51.650;-0.522;2023-12-22T01:36:24;2.40;;;0.80;;
68910;SDS011;55953;51.650;-0.522;2023-12-22T01:38:52;2.10;;;0.80;;
68910;SDS011;55953;51.650;-0.522;2023-12-22T01:41:20;2.00;;;0.70;;
68910;SDS011;55953;51.650;-0.522;2023-12-22T01:43:48;2.70;;;0.70;;
68910;SDS011;55953;51.650;-0.522;2023-12-22T01:46:16;3.20;;;0.80;;
68910;SDS011;55953;51.650;-0.522;2023-12-22T01:48:44;0.90;;;0.60;;
68910;SDS011;55953;51.650;-0.522;2023-12-22T01:51:12;1.60;;;0.50;;
68910;SDS011;55953;51.650;-0.522;2023-12-22T01:53:41;2.40;;;0.70;;
68910;SDS011;55953;51.650;-0.522;2023-12-22T01:56:09;1.50;;;0.40;;
68910;SDS011;55953;51.650;-0.522;2023-12-22T01:58:37;1.70;;;0.50;;
68910;SDS011;55953;51.650;-0.522;2023-12-22T02:01:13;1.50;;;0.50;;
68910;SDS011;55953;51.650;-0.522;2023-12-22T02:03:42;3.70;;;0.60;;
68910;SDS011;55953;51.650;-0.522;2023-12-22T02:06:10;2.10;;;0.80;;
68910;SDS011;55953;51.650;-0.522;2023-12-22T02:08:38;3.40;;;0.70;;
68910;SDS011;55953;51.650;-0.522;2023-12-22T02:11:08;3.00;;;0.90;;
68910;SDS011;55953;51.650;-0.522;2023-12-22T02:13:35;2.00;;;0.80;;
68910;SDS011;55953;51.650;-0.522;2023-12-22T02:19:20;2.80;;;0.90;;
68910;SDS011;55953;51.650;-0.522;2023-12-22T02:22:07;3.50;;;0.70;;
68910;SDS011;55953;51.650;-0.522;2023-12-22T02:24:40;3.40;;;0.90;;
68910;SDS011;55953;51.650;-0.522;2023-12-22T02:27:23;2.50;;;0.60;;
68910;SDS011;55953;51.650;-0.522;2023-12-22T02:32:41;2.80;;;0.90;;
68910;SDS011;55953;51.650;-0.522;2023-12-22T02:35:15;3.30;;;0.90;;
68910;SDS011;55953;51.650;-0.522;2023-12-22T02:37:46;3.30;;;1.10;;
68910;SDS011;55953;51.650;-0.522;2023-12-22T02:40:16;4.90;;;1.00;;
68910;SDS011;55953;51.650;-0.522;2023-12-22T02:42:46;4.00;;;0.90;;
68910;SDS011;55953;51.650;-0.522;2023-12-22T02:45:16;4.30;;;1.30;;
68910;SDS011;55953;51.650;-0.522;2023-12-22T02:47:46;5.20;;;1.30;;
68910;SDS011;55953;51.650;-0.522;2023-12-22T02:50:16;5.50;;;1.00;;
68910;SDS011;55953;51.650;-0.522;2023-12-22T02:52:44;3.10;;;0.90;;
68910;SDS011;55953;51.650;-0.522;2023-12-22T02:55:13;5.60;;;1.20;;
68910;SDS011;55953;51.650;-0.522;2023-12-22T02:57:41;4.90;;;1.30;;
68910;SDS011;55953;51.650;-0.522;2023-12-22T03:00:09;7.40;;;1.20;;
68910;SDS011;55953;51.650;-0.522;2023-12-22T03:02:37;4.50;;;0.90;;
68910;SDS011;55953;51.650;-0.522;2023-12-22T03:05:06;5.10;;;1.30;;
68910;SDS011;55953;51.650;-0.522;2023-12-22T03:07:34;3.50;;;1.00;;
68910;SDS011;55953;51.650;-0.522;2023-12-22T03:10:02;3.40;;;0.90;;
68910;SDS011;55953;51.650;-0.522;2023-12-22T03:12:30;4.80;;;0.90;;
68910;SDS011;55953;51.650;-0.522;2023-12-22T03:14:58;2.10;;;0.70;;
68910;SDS011;55953;51.650;-0.522;2023-12-22T03:17:26;3.80;;;0.80;;
68910;SDS011;55953;51.650;-0.522;2023-12-22T03:19:54;3.00;;;0.80;;
68910;SDS011;55953;51.650;-0.522;2023-12-22T03:22:22;3.10;;;0.70;;
68910;SDS011;55953;51.650;-0.522;2023-12-22T03:24:50;1.90;;;0.80;;
68910;SDS011;55953;51.650;-0.522;2023-12-22T03:27:18;4.20;;;0.60;;
68910;SDS011;55953;51.650;-0.522;2023-12-22T03:29:47;2.30;;;0.70;;
68910;SDS011;55953;51.650;-0.522;2023-12-22T03:32:15;4.40;;;0.60;;
68910;SDS011;55953;51.650;-0.522;2023-12-22T03:34:44;4.60;;;0.80;;
68910;SDS011;55953;51.650;-0.522;2023-12-22T03:37:11;2.30;;;0.70;;
68910;SDS011;55953;51.650;-0.522;2023-12-22T03:39:39;2.70;;;0.60;;
68910;SDS011;55953;51.650;-0.522;2023-12-22T03:42:07;2.30;;;0.60;;
68910;SDS011;55953;51.650;-0.522;2023-12-22T03:44:35;3.00;;;0.60;;
68910;SDS011;55953;51.650;-0.522;2023-12-22T03:47:03;1.80;;;0.90;;
68910;SDS011;55953;51.650;-0.522;2023-12-22T03:49:31;2.50;;;0.70;;
68910;SDS011;55953;51.650;-0.522;2023-12-22T03:51:59;1.10;;;0.50;;
68910;SDS011;55953;51.650;-0.522;2023-12-22T03:54:27;2.70;;;0.50;;
68910;SDS011;55953;51.650;-0.522;2023-12-22T03:56:55;1.70;;;0.60;;
68910;SDS011;55953;51.650;-0.522;2023-12-22T03:59:23;2.30;;;0.60;;
68910;SDS011;55953;51.650;-0.522;2023-12-22T04:01:51;0.70;;;0.50;;
68910;SDS011;55953;51.650;-0.522;2023-12-22T04:04:25;1.80;;;0.60;;
68910;SDS011;55953;51.650;-0.522;2023-12-22T04:06:55;2.30;;;0.60;;
68910;SDS011;55953;51.650;-0.522;2023-12-22T04:09:23;1.40;;;0.50;;
68910;SDS011;55953;51.650;-0.522;2023-12-22T04:11:51;1.80;;;0.60;;
68910;SDS011;55953;51.650;-0.522;2023-12-22T04:14:19;2.40;;;0.70;;
68910;SDS011;55953;51.650;-0.522;2023-12-22T04:16:46;4.70;;;0.90;;
68910;SDS011;55953;51.650;-0.522;2023-12-22T04:19:15;1.30;;;0.50;;
68910;SDS011;55953;51.650;-0.522;2023-12-22T04:21:45;4.00;;;0.70;;
68910;SDS011;55953;51.650;-0.522;2023-12-22T04:24:13;0.50;;;0.50;;
68910;SDS011;55953;51.650;-0.522;2023-12-22T04:26:42;1.60;;;0.50;;
68910;SDS011;55953;51.650;-0.522;2023-12-22T04:29:09;0.50;;;0.40;;
68910;SDS011;55953;51.650;-0.522;2023-12-22T04:31:38;1.20;;;0.80;;
68910;SDS011;55953;51.650;-0.522;2023-12-22T04:34:06;1.70;;;0.50;;
68910;SDS011;55953;51.650;-0.522;2023-12-22T04:36:35;0.40;;;0.40;;
68910;SDS011;55953;51.650;-0.522;2023-12-22T04:39:03;0.50;;;0.50;;
68910;SDS011;55953;51.650;-0.522;2023-12-22T04:41:31;1.00;;;0.50;;
68910;SDS011;55953;51.650;-0.522;2023-12-22T04:43:59;1.60;;;0.50;;
68910;SDS011;55953;51.650;-0.522;2023-12-22T04:46:30;1.60;;;0.40;;
68910;SDS011;55953;51.650;-0.522;2023-12-22T04:48:58;0.30;;;0.30;;
68910;SDS011;55953;51.650;-0.522;2023-12-22T04:51:26;0.70;;;0.40;;
68910;SDS011;55953;51.650;-0.522;2023-12-22T04:53:54;1.00;;;0.80;;
68910;SDS011;55953;51.650;-0.522;2023-12-22T04:56:22;1.60;;;0.40;;
68910;SDS011;55953;51.650;-0.522;2023-12-22T04:58:50;1.20;;;0.40;;
68910;SDS011;55953;51.650;-0.522;2023-12-22T05:01:18;1.50;;;0.40;;
68910;SDS011;55953;51.650;-0.522;2023-12-22T05:03:47;0.90;;;0.40;;
68910;SDS011;55953;51.650;-0.522;2023-12-22T05:06:15;1.50;;;0.50;;
68910;SDS011;55953;51.650;-0.522;2023-12-22T05:08:42;0.70;;;0.50;;
68910;SDS011;55953;51.650;-0.522;2023-12-22T05:11:10;2.40;;;0.40;;
68910;SDS011;55953;51.650;-0.522;2023-12-22T05:13:38;1.60;;;0.50;;
68910;SDS011;55953;51.650;-0.522;2023-12-22T05:16:08;1.30;;;0.40;;
68910;SDS011;55953;51.650;-0.522;2023-12-22T05:18:36;1.50;;;0.50;;
68910;SDS011;55953;51.650;-0.522;2023-12-22T05:21:04;0.70;;;0.40;;
68910;SDS011;55953;51.650;-0.522;2023-12-22T05:23:32;1.30;;;0.30;;
68910;SDS011;55953;51.650;-0.522;2023-12-22T05:26:00;1.00;;;0.50;;
68910;SDS011;55953;51.650;-0.522;2023-12-22T05:28:28;1.90;;;0.40;;
68910;SDS011;55953;51.650;-0.522;2023-12-22T05:30:56;0.90;;;0.30;;
68910;SDS011;55953;51.650;-0.522;2023-12-22T05:33:24;2.60;;;0.40;;
68910;SDS011;55953;51.650;-0.522;2023-12-22T05:35:52;0.70;;;0.30;;
68910;SDS011;55953;51.650;-0.522;2023-12-22T05:38:20;0.50;;;0.30;;
68910;SDS011;55953;51.650;-0.522;2023-12-22T05:40:48;0.40;;;0.40;;
68910;SDS011;55953;51.650;-0.522;2023-12-22T05:43:16;1.40;;;0.40;;
68910;SDS011;55953;51.650;-0.522;2023-12-22T05:45:44;0.50;;;0.30;;
68910;SDS011;55953;51.650;-0.522;2023-12-22T05:48:12;0.80;;;0.50;;
68910;SDS011;55953;51.650;-0.522;2023-12-22T05:50:40;1.80;;;0.50;;
68910;SDS011;55953;51.650;-0.522;2023-12-22T05:53:08;0.80;;;0.30;;
68910;SDS011;55953;51.650;-0.522;2023-12-22T05:55:38;1.20;;;0.40;;
68910;SDS011;55953;51.650;-0.522;2023-12-22T05:58:06;0.30;;;0.20;;
68910;SDS011;55953;51.650;-0.522;2023-12-22T06:00:53;1.50;;;0.50;;
68910;SDS011;55953;51.650;-0.522;2023-12-22T06:03:21;0.60;;;0.20;;
68910;SDS011;55953;51.650;-0.522;2023-12-22T06:05:49;1.20;;;0.30;;
68910;SDS011;55953;51.650;-0.522;2023-12-22T06:08:17;1.70;;;0.40;;
68910;SDS011;55953;51.650;-0.522;2023-12-22T06:10:45;0.90;;;0.40;;
68910;SDS011;55953;51.650;-0.522;2023-12-22T06:13:13;1.20;;;0.40;;
68910;SDS011;55953;51.650;-0.522;2023-12-22T06:15:42;1.20;;;0.30;;
68910;SDS011;55953;51.650;-0.522;2023-12-22T06:18:10;0.30;;;0.30;;
68910;SDS011;55953;51.650;-0.522;2023-12-22T06:20:39;1.80;;;0.30;;
68910;SDS011;55953;51.650;-0.522;2023-12-22T06:23:06;3.10;;;0.50;;
68910;SDS011;55953;51.650;-0.522;2023-12-22T06:25:34;0.60;;;0.40;;
68910;SDS011;55953;51.650;-0.522;2023-12-22T06:28:03;1.80;;;0.60;;
68910;SDS011;55953;51.650;-0.522;2023-12-22T06:30:31;2.40;;;0.30;;
68910;SDS011;55953;51.650;-0.522;2023-12-22T06:32:59;0.60;;;0.30;;
68910;SDS011;55953;51.650;-0.522;2023-12-22T06:35:27;0.20;;;0.20;;
68910;SDS011;55953;51.650;-0.522;2023-12-22T06:37:55;0.80;;;0.40;;
68910;SDS011;55953;51.650;-0.522;2023-12-22T06:40:23;0.30;;;0.30;;
68910;SDS011;55953;51.650;-0.522;2023-12-22T06:42:51;1.20;;;0.40;;
68910;SDS011;55953;51.650;-0.522;2023-12-22T06:45:19;1.40;;;0.40;;
68910;SDS011;55953;51.650;-0.522;2023-12-22T06:47:48;0.70;;;0.30;;
68910;SDS011;55953;51.650;-0.522;2023-12-22T06:50:16;0.60;;;0.30;;
68910;SDS011;55953;51.650;-0.522;2023-12-22T06:52:44;0.40;;;0.30;;
68910;SDS011;55953;51.650;-0.522;2023-12-22T06:55:12;0.30;;;0.30;;
68910;SDS011;55953;51.650;-0.522;2023-12-22T06:57:41;1.30;;;0.50;;
68910;SDS011;55953;51.650;-0.522;2023-12-22T07:00:10;1.20;;;0.30;;
68910;SDS011;55953;51.650;-0.522;2023-12-22T07:02:38;2.40;;;0.70;;
68910;SDS011;55953;51.650;-0.522;2023-12-22T07:07:38;1.50;;;0.80;;
68910;SDS011;55953;51.650;-0.522;2023-12-22T07:10:06;0.80;;;0.70;;
68910;SDS011;55953;51.650;-0.522;2023-12-22T07:12:34;1.40;;;0.90;;
68910;SDS011;55953;51.650;-0.522;2023-12-22T07:15:02;2.80;;;0.90;;
68910;SDS011;55953;51.650;-0.522;2023-12-22T07:17:31;1.50;;;0.60;;
68910;SDS011;55953;51.650;-0.522;2023-12-22T07:19:59;2.30;;;0.60;;
68910;SDS011;55953;51.650;-0.522;2023-12-22T07:22:27;2.20;;;0.60;;
68910;SDS011;55953;51.650;-0.522;2023-12-22T07:24:55;3.10;;;0.80;;
68910;SDS011;55953;51.650;-0.522;2023-12-22T07:27:25;0.90;;;0.50;;
68910;SDS011;55953;51.650;-0.522;2023-12-22T07:29:55;1.50;;;0.60;;
68910;SDS011;55953;51.650;-0.522;2023-12-22T07:32:22;1.50;;;0.70;;
68910;SDS011;55953;51.650;-0.522;2023-12-22T07:34:50;2.10;;;0.70;;
68910;SDS011;55953;51.650;-0.522;2023-12-22T07:37:19;1.70;;;0.80;;
68910;SDS011;55953;51.650;-0.522;2023-12-22T07:39:47;2.50;;;0.70;;
68910;SDS011;55953;51.650;-0.522;2023-12-22T07:42:15;0.90;;;0.50;;
68910;SDS011;55953;51.650;-0.522;2023-12-22T07:44:44;0.90;;;0.30;;
68910;SDS011;55953;51.650;-0.522;2023-12-22T07:47:12;1.10;;;0.50;;
68910;SDS011;55953;51.650;-0.522;2023-12-22T07:49:40;1.70;;;0.70;;
68910;SDS011;55953;51.650;-0.522;2023-12-22T07:52:08;2.40;;;0.40;;
68910;SDS011;55953;51.650;-0.522;2023-12-22T07:54:36;2.00;;;0.60;;
68910;SDS011;55953;51.650;-0.522;2023-12-22T07:57:05;2.90;;;0.60;;
68910;SDS011;55953;51.650;-0.522;2023-12-22T07:59:33;1.00;;;0.50;;
68910;SDS011;55953;51.650;-0.522;2023-12-22T08:02:02;3.30;;;0.60;;
68910;SDS011;55953;51.650;-0.522;2023-12-22T08:04:30;1.50;;;0.40;;
68910;SDS011;55953;51.650;-0.522;2023-12-22T08:06:59;1.50;;;0.80;;
68910;SDS011;55953;51.650;-0.522;2023-12-22T08:09:27;2.00;;;0.40;;
68910;SDS011;55953;51.650;-0.522;2023-12-22T08:11:55;1.70;;;0.50;;
68910;SDS011;55953;51.650;-0.522;2023-12-22T08:14:24;1.60;;;0.60;;
68910;SDS011;55953;51.650;-0.522;2023-12-22T08:16:52;2.10;;;0.60;;
68910;SDS011;55953;51.650;-0.522;2023-12-22T08:19:20;1.10;;;0.60;;
68910;SDS011;55953;51.650;-0.522;2023-12-22T08:21:50;3.20;;;0.60;;
68910;SDS011;55953;51.650;-0.522;2023-12-22T08:24:21;1.70;;;0.70;;
68910;SDS011;55953;51.650;-0.522;2023-12-22T08:26:50;2.50;;;0.70;;
68910;SDS011;55953;51.650;-0.522;2023-12-22T08:29:19;1.60;;;0.50;;
68910;SDS011;55953;51.650;-0.522;2023-12-22T08:31:48;2.30;;;0.60;;
68910;SDS011;55953;51.650;-0.522;2023-12-22T08:34:16;1.00;;;0.40;;
68910;SDS011;55953;51.650;-0.522;2023-12-22T08:36:44;1.70;;;0.60;;
68910;SDS011;55953;51.650;-0.522;2023-12-22T08:39:12;1.00;;;0.30;;
68910;SDS011;55953;51.650;-0.522;2023-12-22T08:41:41;1.80;;;0.50;;
68910;SDS011;55953;51.650;-0.522;2023-12-22T08:44:10;3.00;;;0.50;;
68910;SDS011;55953;51.650;-0.522;2023-12-22T08:46:39;0.90;;;0.40;;
68910;SDS011;55953;51.650;-0.522;2023-12-22T08:49:07;1.80;;;0.90;;
68910;SDS011;55953;51.650;-0.522;2023-12-22T08:51:35;1.30;;;0.40;;
68910;SDS011;55953;51.650;-0.522;2023-12-22T08:54:04;2.10;;;0.50;;
68910;SDS011;55953;51.650;-0.522;2023-12-22T08:56:32;1.60;;;0.50;;
68910;SDS011;55953;51.650;-0.522;2023-12-22T08:59:00;1.30;;;0.60;;
68910;SDS011;55953;51.650;-0.522;2023-12-22T09:01:28;2.00;;;0.50;;
68910;SDS011;55953;51.650;-0.522;2023-12-22T09:03:56;2.40;;;0.60;;
68910;SDS011;55953;51.650;-0.522;2023-12-22T09:06:24;5.60;;;0.60;;
68910;SDS011;55953;51.650;-0.522;2023-12-22T09:08:52;1.00;;;0.50;;
68910;SDS011;55953;51.650;-0.522;2023-12-22T09:11:21;2.00;;;0.40;;
68910;SDS011;55953;51.650;-0.522;2023-12-22T09:13:49;2.90;;;0.60;;
68910;SDS011;55953;51.650;-0.522;2023-12-22T09:16:21;1.20;;;0.60;;
68910;SDS011;55953;51.650;-0.522;2023-12-22T09:18:50;1.00;;;0.50;;
68910;SDS011;55953;51.650;-0.522;2023-12-22T09:21:19;1.50;;;0.40;;
68910;SDS011;55953;51.650;-0.522;2023-12-22T09:23:47;1.40;;;0.50;;
68910;SDS011;55953;51.650;-0.522;2023-12-22T09:26:15;0.70;;;0.40;;
68910;SDS011;55953;51.650;-0.522;2023-12-22T09:28:44;1.80;;;0.50;;
68910;SDS011;55953;51.650;-0.522;2023-12-22T09:31:12;1.20;;;0.40;;
68910;SDS011;55953;51.650;-0.522;2023-12-22T09:33:42;2.00;;;0.40;;
68910;SDS011;55953;51.650;-0.522;2023-12-22T09:36:10;2.10;;;0.50;;
68910;SDS011;55953;51.650;-0.522;2023-12-22T09:38:39;2.20;;;0.70;;
68910;SDS011;55953;51.650;-0.522;2023-12-22T09:41:09;1.70;;;0.40;;
68910;SDS011;55953;51.650;-0.522;2023-12-22T09:43:38;1.60;;;0.50;;
68910;SDS011;55953;51.650;-0.522;2023-12-22T09:46:08;3.00;;;0.80;;
68910;SDS011;55953;51.650;-0.522;2023-12-22T09:48:38;3.10;;;0.50;;
68910;SDS011;55953;51.650;-0.522;2023-12-22T09:51:08;1.20;;;0.40;;
68910;SDS011;55953;51.650;-0.522;2023-12-22T09:53:39;1.10;;;0.80;;
68910;SDS011;55953;51.650;-0.522;2023-12-22T09:56:09;3.80;;;0.60;;
68910;SDS011;55953;51.650;-0.522;2023-12-22T09:58:37;2.10;;;0.70;;
68910;SDS011;55953;51.650;-0.522;2023-12-22T10:01:06;2.70;;;0.80;;
68910;SDS011;55953;51.650;-0.522;2023-12-22T10:03:36;3.60;;;0.80;;
68910;SDS011;55953;51.650;-0.522;2023-12-22T10:06:05;1.50;;;0.50;;
68910;SDS011;55953;51.650;-0.522;2023-12-22T10:08:34;2.10;;;0.60;;
68910;SDS011;55953;51.650;-0.522;2023-12-22T10:11:03;2.10;;;0.50;;
68910;SDS011;55953;51.650;-0.522;2023-12-22T10:13:33;2.60;;;0.60;;
68910;SDS011;55953;51.650;-0.522;2023-12-22T10:16:05;3.30;;;0.70;;
68910;SDS011;55953;51.650;-0.522;2023-12-22T10:18:34;2.20;;;0.40;;
68910;SDS011;55953;51.650;-0.522;2023-12-22T10:21:02;2.90;;;0.60;;
68910;SDS011;55953;51.650;-0.522;2023-12-22T10:23:30;2.20;;;0.70;;
68910;SDS011;55953;51.650;-0.522;2023-12-22T10:25:59;2.30;;;0.70;;
68910;SDS011;55953;51.650;-0.522;2023-12-22T10:28:28;2.50;;;0.80;;
68910;SDS011;55953;51.650;-0.522;2023-12-22T10:30:56;2.20;;;0.50;;
68910;SDS011;55953;51.650;-0.522;2023-12-22T10:33:29;1.80;;;0.70;;
68910;SDS011;55953;51.650;-0.522;2023-12-22T10:36:01;4.20;;;1.00;;
68910;SDS011;55953;51.650;-0.522;2023-12-22T10:38:33;1.80;;;0.60;;
68910;SDS011;55953;51.650;-0.522;2023-12-22T10:41:06;3.10;;;0.80;;
68910;SDS011;55953;51.650;-0.522;2023-12-22T10:43:40;1.60;;;0.60;;
68910;SDS011;55953;51.650;-0.522;2023-12-22T10:46:09;3.30;;;0.70;;
68910;SDS011;55953;51.650;-0.522;2023-12-22T10:48:40;2.30;;;0.70;;
68910;SDS011;55953;51.650;-0.522;2023-12-22T10:51:11;2.20;;;0.70;;
68910;SDS011;55953;51.650;-0.522;2023-12-22T10:53:42;3.90;;;0.80;;
68910;SDS011;55953;51.650;-0.522;2023-12-22T10:58:39;2.20;;;0.70;;
68910;SDS011;55953;51.650;-0.522;2023-12-22T11:01:07;3.00;;;1.00;;
68910;SDS011;55953;51.650;-0.522;2023-12-22T11:03:39;2.00;;;0.60;;
68910;SDS011;55953;51.650;-0.522;2023-12-22T11:06:12;3.90;;;0.70;;
68910;SDS011;55953;51.650;-0.522;2023-12-22T11:08:43;3.10;;;0.60;;
68910;SDS011;55953;51.650;-0.522;2023-12-22T11:11:35;2.50;;;0.80;;
68910;SDS011;55953;51.650;-0.522;2023-12-22T11:14:07;2.40;;;0.80;;
68910;SDS011;55953;51.650;-0.522;2023-12-22T11:16:35;2.90;;;0.60;;
68910;SDS011;55953;51.650;-0.522;2023-12-22T11:19:04;2.60;;;0.70;;
68910;SDS011;55953;51.650;-0.522;2023-12-22T11:21:32;3.80;;;0.80;;
68910;SDS011;55953;51.650;-0.522;2023-12-22T11:24:02;1.50;;;0.60;;
68910;SDS011;55953;51.650;-0.522;2023-12-22T11:26:32;2.80;;;0.60;;
68910;SDS011;55953;51.650;-0.522;2023-12-22T11:29:02;3.10;;;0.80;;
68910;SDS011;55953;51.650;-0.522;2023-12-22T11:31:31;2.80;;;0.70;;
68910;SDS011;55953;51.650;-0.522;2023-12-22T11:34:00;2.70;;;0.50;;
68910;SDS011;55953;51.650;-0.522;2023-12-22T11:36:39;2.20;;;0.60;;
68910;SDS011;55953;51.650;-0.522;2023-12-22T11:39:08;2.50;;;0.80;;
68910;SDS011;55953;51.650;-0.522;2023-12-22T11:41:37;1.60;;;0.60;;
68910;SDS011;55953;51.650;-0.522;2023-12-22T11:44:07;3.10;;;0.60;;
68910;SDS011;55953;51.650;-0.522;2023-12-22T11:46:36;1.40;;;0.70;;
68910;SDS011;55953;51.650;-0.522;2023-12-22T11:49:04;2.90;;;0.70;;
68910;SDS011;55953;51.650;-0.522;2023-12-22T11:51:33;3.50;;;0.60;;
68910;SDS011;55953;51.650;-0.522;2023-12-22T11:57:31;1.20;;;0.60;;
68910;SDS011;55953;51.650;-0.522;2023-12-22T12:00:07;2.90;;;0.60;;
68910;SDS011;55953;51.650;-0.522;2023-12-22T12:02:41;2.30;;;0.80;;
68910;SDS011;55953;51.650;-0.522;2023-12-22T12:05:12;2.50;;;0.80;;
68910;SDS011;55953;51.650;-0.522;2023-12-22T12:13:22;1.60;;;0.70;;
68910;SDS011;55953;51.650;-0.522;2023-12-22T12:15:52;3.40;;;0.80;;
68910;SDS011;55953;51.650;-0.522;2023-12-22T12:18:23;3.60;;;0.70;;
68910;SDS011;55953;51.650;-0.522;2023-12-22T12:20:52;4.60;;;0.90;;
68910;SDS011;55953;51.650;-0.522;2023-12-22T12:23:20;5.90;;;1.70;;
68910;SDS011;55953;51.650;-0.522;2023-12-22T12:28:25;3.60;;;0.90;;
68910;SDS011;55953;51.650;-0.522;2023-12-22T12:31:03;2.60;;;0.70;;
68910;SDS011;55953;51.650;-0.522;2023-12-22T12:33:36;3.10;;;0.70;;
68910;SDS011;55953;51.650;-0.522;2023-12-22T12:36:05;1.90;;;0.50;;
68910;SDS011;55953;51.650;-0.522;2023-12-22T12:41:31;5.00;;;0.80;;
68910;SDS011;55953;51.650;-0.522;2023-12-22T12:44:04;3.10;;;1.00;;
68910;SDS011;55953;51.650;-0.522;2023-12-22T12:49:06;3.40;;;0.70;;
68910;SDS011;55953;51.650;-0.522;2023-12-22T12:51:37;4.60;;;0.90;;
68910;SDS011;55953;51.650;-0.522;2023-12-22T12:54:10;2.00;;;0.50;;
68910;SDS011;55953;51.650;-0.522;2023-12-22T12:56:42;3.60;;;0.60;;
68910;SDS011;55953;51.650;-0.522;2023-12-22T12:59:13;3.70;;;0.80;;
68910;SDS011;55953;51.650;-0.522;2023-12-22T13:01:45;5.00;;;1.00;;
68910;SDS011;55953;51.650;-0.522;2023-12-22T13:06:50;3.00;;;0.60;;
68910;SDS011;55953;51.650;-0.522;2023-12-22T13:09:19;2.50;;;0.80;;
68910;SDS011;55953;51.650;-0.522;2023-12-22T13:11:47;4.50;;;0.90;;
68910;SDS011;55953;51.650;-0.522;2023-12-22T13:14:22;2.90;;;0.80;;
68910;SDS011;55953;51.650;-0.522;2023-12-22T13:16:55;4.10;;;0.90;;
68910;SDS011;55953;51.650;-0.522;2023-12-22T13:19:26;4.00;;;1.00;;
68910;SDS011;55953;51.650;-0.522;2023-12-22T13:21:55;3.60;;;0.70;;
68910;SDS011;55953;51.650;-0.522;2023-12-22T13:24:23;3.80;;;1.20;;
68910;SDS011;55953;51.650;-0.522;2023-12-22T13:27:02;3.80;;;1.10;;
68910;SDS011;55953;51.650;-0.522;2023-12-22T13:29:44;2.80;;;0.70;;
68910;SDS011;55953;51.650;-0.522;2023-12-22T13:32:20;2.80;;;0.70;;
68910;SDS011;55953;51.650;-0.522;2023-12-22T13:34:54;2.30;;;0.70;;
68910;SDS011;55953;51.650;-0.522;2023-12-22T13:37:23;2.40;;;0.90;;
68910;SDS011;55953;51.650;-0.522;2023-12-22T13:39:54;4.40;;;1.10;;
68910;SDS011;55953;51.650;-0.522;2023-12-22T13:42:22;3.80;;;1.20;;
68910;SDS011;55953;51.650;-0.522;2023-12-22T13:44:51;2.40;;;0.60;;
68910;SDS011;55953;51.650;-0.522;2023-12-22T13:47:20;3.60;;;0.60;;
68910;SDS011;55953;51.650;-0.522;2023-12-22T13:49:53;2.60;;;0.80;;
68910;SDS011;55953;51.650;-0.522;2023-12-22T13:52:39;4.30;;;0.90;;
68910;SDS011;55953;51.650;-0.522;2023-12-22T13:55:13;1.30;;;0.70;;
68910;SDS011;55953;51.650;-0.522;2023-12-22T13:57:43;2.20;;;0.70;;
68910;SDS011;55953;51.650;-0.522;2023-12-22T14:02:46;2.00;;;0.80;;
68910;SDS011;55953;51.650;-0.522;2023-12-22T14:05:17;4.20;;;0.80;;
68910;SDS011;55953;51.650;-0.522;2023-12-22T14:07:47;3.60;;;0.90;;
68910;SDS011;55953;51.650;-0.522;2023-12-22T14:10:17;3.20;;;0.70;;
68910;SDS011;55953;51.650;-0.522;2023-12-22T14:12:45;2.40;;;0.70;;
68910;SDS011;55953;51.650;-0.522;2023-12-22T14:15:13;3.70;;;0.70;;
68910;SDS011;55953;51.650;-0.522;2023-12-22T14:17:41;3.40;;;0.70;;
68910;SDS011;55953;51.650;-0.522;2023-12-22T14:20:10;3.80;;;0.80;;
68910;SDS011;55953;51.650;-0.522;2023-12-22T14:22:39;4.60;;;1.00;;
68910;SDS011;55953;51.650;-0.522;2023-12-22T14:25:07;3.80;;;0.80;;
68910;SDS011;55953;51.650;-0.522;2023-12-22T14:27:36;2.70;;;0.70;;
68910;SDS011;55953;51.650;-0.522;2023-12-22T14:30:05;3.40;;;0.60;;
68910;SDS011;55953;51.650;-0.522;2023-12-22T14:32:33;4.10;;;1.20;;
68910;SDS011;55953;51.650;-0.522;2023-12-22T14:35:01;6.40;;;1.10;;
68910;SDS011;55953;51.650;-0.522;2023-12-22T14:40:02;4.70;;;0.90;;
68910;SDS011;55953;51.650;-0.522;2023-12-22T14:42:31;3.70;;;1.00;;
68910;SDS011;55953;51.650;-0.522;2023-12-22T14:45:00;3.70;;;1.00;;
68910;SDS011;55953;51.650;-0.522;2023-12-22T14:47:29;4.10;;;1.10;;
68910;SDS011;55953;51.650;-0.522;2023-12-22T14:49:58;2.30;;;0.70;;
68910;SDS011;55953;51.650;-0.522;2023-12-22T14:52:31;3.40;;;0.70;;
68910;SDS011;55953;51.650;-0.522;2023-12-22T14:55:00;5.50;;;0.80;;
68910;SDS011;55953;51.650;-0.522;2023-12-22T14:57:29;2.50;;;0.70;;
68910;SDS011;55953;51.650;-0.522;2023-12-22T14:59:57;2.30;;;0.80;;
68910;SDS011;55953;51.650;-0.522;2023-12-22T15:02:25;2.70;;;0.70;;
68910;SDS011;55953;51.650;-0.522;2023-12-22T15:04:53;3.30;;;1.10;;
68910;SDS011;55953;51.650;-0.522;2023-12-22T15:07:24;1.90;;;0.80;;
68910;SDS011;55953;51.650;-0.522;2023-12-22T15:09:52;2.10;;;0.70;;
68910;SDS011;55953;51.650;-0.522;2023-12-22T15:12:20;3.80;;;0.80;;
68910;SDS011;55953;51.650;-0.522;2023-12-22T15:14:47;3.70;;;1.10;;
68910;SDS011;55953;51.650;-0.522;2023-12-22T15:17:15;3.00;;;0.70;;
68910;SDS011;55953;51.650;-0.522;2023-12-22T15:19:44;5.80;;;1.00;;